createdAt,value
2019-01-21T00:00:42.777Z,35.60
2019-01-21T00:03:47.669Z,35.53
2019-01-21T00:06:52.117Z,35.83
2019-01-21T00:09:56.824Z,36.03
2019-01-21T00:13:01.553Z,35.30
2019-01-21T00:16:06.293Z,34.53
2019-01-21T00:19:10.723Z,37.37
2019-01-21T00:22:15.183Z,37.00
2019-01-21T00:25:19.628Z,37.77
2019-01-21T00:28:24.083Z,36.07
2019-01-21T00:31:28.816Z,35.80
2019-01-21T00:34:33.252Z,37.67
2019-01-21T00:37:37.701Z,37.43
2019-01-21T00:40:42.151Z,36.90
2019-01-21T00:43:46.599Z,37.33
2019-01-21T00:46:51.340Z,38.50
2019-01-21T00:49:56.073Z,36.70
2019-01-21T00:53:00.517Z,38.50
2019-01-21T00:56:04.981Z,38.07
2019-01-21T00:59:09.428Z,36.83
2019-01-21T01:02:14.168Z,36.57
2019-01-21T01:05:19.714Z,36.87
2019-01-21T01:08:24.162Z,36.83
2019-01-21T01:11:28.620Z,38.27
2019-01-21T01:14:33.067Z,38.17
2019-01-21T01:17:37.520Z,35.33
2019-01-21T01:20:41.962Z,36.40
2019-01-21T01:23:46.670Z,34.20
2019-01-21T01:26:51.120Z,34.00
2019-01-21T01:29:55.555Z,35.10
2019-01-21T01:33:00.016Z,33.87
2019-01-21T01:36:04.532Z,33.97
2019-01-21T01:39:09.403Z,34.37
2019-01-21T01:42:13.850Z,33.83
2019-01-21T01:45:22.043Z,34.70
2019-01-21T01:48:26.871Z,32.03
2019-01-21T01:51:31.315Z,34.07
2019-01-21T01:54:35.771Z,33.30
2019-01-21T01:57:40.224Z,32.13
2019-01-21T02:00:44.661Z,34.17
2019-01-21T02:03:49.110Z,32.00
2019-01-21T02:06:53.839Z,32.47
2019-01-21T02:09:58.465Z,32.70
2019-01-21T02:13:02.984Z,32.73
2019-01-21T02:16:07.415Z,32.10
2019-01-21T02:19:12.134Z,32.13
2019-01-21T02:22:17.414Z,29.37
2019-01-21T02:25:26.102Z,31.70
2019-01-21T02:28:55.933Z,30.47
2019-01-21T02:32:28.859Z,29.30
2019-01-21T02:35:38.033Z,30.37
2019-01-21T02:39:11.120Z,33.17
2019-01-21T02:42:55.194Z,29.87
2019-01-21T02:46:19.594Z,31.03
2019-01-21T02:49:49.838Z,29.97
2019-01-21T02:53:16.973Z,29.77
2019-01-21T02:56:44.207Z,29.80
2019-01-21T03:00:02.482Z,30.17
2019-01-21T03:03:23.462Z,27.87
2019-01-21T03:06:38.223Z,29.27
2019-01-21T03:10:07.362Z,28.67
2019-01-21T03:13:34.229Z,28.77
2019-01-21T03:17:00.613Z,28.87
2019-01-21T03:20:30.465Z,28.47
2019-01-21T03:23:52.195Z,27.27
2019-01-21T03:27:26.009Z,29.20
2019-01-21T03:31:22.539Z,28.53
2019-01-21T03:34:43.874Z,28.33
2019-01-21T03:38:18.920Z,27.80
2019-01-21T03:41:34.089Z,26.80
2019-01-21T03:45:16.388Z,28.47
2019-01-21T03:48:28.510Z,26.97
2019-01-21T03:52:00.189Z,27.93
2019-01-21T03:55:09.555Z,26.70
2019-01-21T03:58:44.468Z,27.07
2019-01-21T04:01:56.102Z,26.40
2019-01-21T04:05:27.527Z,27.33
2019-01-21T04:08:57.108Z,26.20
2019-01-21T04:12:17.919Z,26.90
2019-01-21T04:15:41.900Z,27.53
2019-01-21T04:19:13.248Z,27.13
2019-01-21T04:22:31.080Z,27.03
2019-01-21T04:25:48.371Z,26.83
2019-01-21T04:29:12.601Z,27.93
2019-01-21T04:32:33.236Z,27.27
2019-01-21T04:36:04.778Z,30.43
2019-01-21T04:39:13.939Z,28.23
2019-01-21T04:42:44.385Z,27.60
2019-01-21T04:46:02.073Z,26.73
2019-01-21T04:49:25.747Z,26.33
2019-01-21T04:52:53.313Z,27.33
2019-01-21T04:56:22.415Z,27.47
2019-01-21T04:59:37.483Z,26.67
2019-01-21T05:03:24.610Z,27.53
2019-01-21T05:07:05.327Z,26.93
2019-01-21T05:10:23.123Z,27.53
2019-01-21T05:13:50.009Z,27.97
2019-01-21T05:17:14.369Z,27.10
2019-01-21T05:20:43.283Z,26.27
2019-01-21T05:24:25.753Z,27.50
2019-01-21T05:27:37.516Z,26.67
2019-01-21T05:30:52.593Z,26.77
2019-01-21T05:34:16.836Z,26.13
2019-01-21T05:37:37.834Z,26.17
2019-01-21T05:41:23.244Z,27.03
2019-01-21T05:45:14.356Z,25.40
2019-01-21T05:48:56.559Z,25.17
2019-01-21T05:52:37.537Z,27.00
2019-01-21T05:56:01.539Z,25.70
2019-01-21T05:59:22.876Z,25.73
2019-01-21T06:02:58.419Z,26.30
2019-01-21T06:06:19.690Z,27.00
2019-01-21T06:09:34.993Z,26.50
2019-01-21T06:12:59.048Z,26.27
2019-01-21T06:16:20.495Z,27.20
2019-01-21T06:19:35.793Z,25.70
2019-01-21T06:23:13.537Z,27.57
2019-01-21T06:26:39.007Z,26.73
2019-01-21T06:30:00.022Z,28.13
2019-01-21T06:33:38.120Z,24.90
2019-01-21T06:36:55.980Z,25.13
2019-01-21T06:40:28.346Z,25.33
2019-01-21T06:43:51.714Z,26.90
2019-01-21T06:47:06.300Z,26.13
2019-01-21T06:50:30.708Z,36.45
2019-01-21T06:53:54.835Z,28.93
2019-01-21T06:57:37.322Z,26.83
2019-01-21T07:01:27.497Z,26.23
2019-01-21T07:05:08.543Z,26.10
2019-01-21T07:08:53.617Z,26.83
2019-01-21T07:12:12.066Z,25.67
2019-01-21T07:15:51.817Z,25.97
2019-01-21T07:19:10.948Z,25.83
2019-01-21T07:22:29.862Z,25.47
2019-01-21T07:26:15.358Z,24.13
2019-01-21T07:29:53.549Z,25.90
2019-01-21T07:33:19.377Z,24.50
2019-01-21T07:36:46.845Z,25.97
2019-01-21T07:40:02.024Z,24.70
2019-01-21T07:43:19.549Z,24.93
2019-01-21T07:46:49.340Z,25.13
2019-01-21T07:50:13.370Z,26.63
2019-01-21T07:53:51.059Z,26.53
2019-01-21T07:57:25.574Z,26.47
2019-01-21T08:00:52.730Z,26.67
2019-01-21T08:04:21.122Z,25.87
2019-01-21T08:07:42.240Z,27.20
2019-01-21T08:11:10.467Z,26.60
2019-01-21T08:14:43.406Z,26.83
2019-01-21T08:18:32.683Z,27.17
2019-01-21T08:22:15.076Z,26.83
2019-01-21T08:25:35.621Z,27.93
2019-01-21T08:28:56.383Z,26.33
2019-01-21T08:32:17.298Z,27.43
2019-01-21T08:35:35.769Z,27.13
2019-01-21T08:38:56.691Z,25.70
2019-01-21T08:42:12.164Z,24.47
2019-01-21T08:45:49.049Z,26.17
2019-01-21T08:49:21.944Z,26.63
2019-01-21T08:52:42.856Z,25.57
2019-01-21T08:56:15.546Z,26.60
2019-01-21T08:59:30.549Z,25.63
2019-01-21T09:02:48.273Z,25.87
2019-01-21T09:06:03.169Z,24.80
2019-01-21T09:09:17.919Z,24.03
2019-01-21T09:12:51.247Z,25.23
2019-01-21T09:16:26.433Z,24.73
2019-01-21T09:19:47.256Z,26.10
2019-01-21T09:23:10.685Z,27.63
2019-01-21T09:26:37.791Z,25.23
2019-01-21T09:29:55.813Z,25.63
2019-01-21T09:33:16.787Z,26.17
2019-01-21T09:36:34.963Z,23.93
2019-01-21T09:40:14.266Z,26.30
2019-01-21T09:43:44.202Z,25.87
2019-01-21T09:46:47.255Z,24.33
2019-01-21T09:49:51.957Z,26.83
2019-01-21T09:52:57.489Z,24.83
2019-01-21T09:56:03.081Z,26.23
2019-01-21T09:59:07.973Z,25.27
2019-01-21T10:02:12.908Z,25.00
2019-01-21T10:05:17.738Z,23.47
2019-01-21T10:08:29.850Z,24.07
2019-01-21T10:11:47.595Z,24.50
2019-01-21T10:14:59.786Z,25.50
2019-01-21T10:18:14.551Z,24.63
2019-01-21T10:21:35.363Z,25.80
2019-01-21T10:25:02.211Z,26.73
2019-01-21T10:28:23.430Z,26.00
2019-01-21T10:32:02.772Z,24.80
2019-01-21T10:35:41.974Z,23.67
2019-01-21T10:39:11.767Z,26.20
2019-01-21T10:42:38.074Z,23.80
2019-01-21T10:46:11.381Z,27.33
2019-01-21T10:49:23.780Z,27.00
2019-01-21T10:52:51.024Z,25.70
2019-01-21T10:56:12.047Z,26.63
2019-01-21T10:59:30.157Z,26.93
2019-01-21T11:03:14.411Z,27.63
2019-01-21T11:06:49.493Z,25.23
2019-01-21T11:10:30.678Z,26.30
2019-01-21T11:14:06.431Z,26.47
2019-01-21T11:17:27.429Z,26.50
2019-01-21T11:20:59.184Z,24.73
2019-01-21T11:24:31.047Z,25.23
2019-01-21T11:28:07.367Z,25.53
2019-01-21T11:31:40.856Z,27.27
2019-01-21T11:35:02.052Z,25.83
2019-01-21T11:38:33.527Z,25.33
2019-01-21T11:42:08.458Z,26.20
2019-01-21T11:45:32.611Z,26.83
2019-01-21T11:49:11.938Z,27.10
2019-01-21T11:52:26.719Z,24.97
2019-01-21T11:55:38.640Z,25.63
2019-01-21T11:58:56.698Z,26.27
2019-01-21T12:02:08.288Z,29.23
2019-01-21T12:05:26.369Z,27.13
2019-01-21T12:08:55.983Z,27.97
2019-01-21T12:12:05.398Z,26.73
2019-01-21T12:15:29.339Z,26.87
2019-01-21T12:18:50.910Z,26.17
2019-01-21T12:22:25.843Z,26.60
2019-01-21T12:25:44.093Z,27.33
2019-01-21T12:28:58.852Z,26.07
2019-01-21T12:32:22.951Z,26.03
2019-01-21T12:35:44.343Z,26.97
2019-01-21T12:39:16.264Z,25.87
2019-01-21T12:42:28.137Z,27.20
2019-01-21T12:45:49.122Z,25.57
2019-01-21T12:49:10.043Z,25.83
2019-01-21T12:52:21.740Z,27.03
2019-01-21T12:55:51.772Z,26.13
2019-01-21T12:59:06.983Z,25.77
2019-01-21T13:02:22.321Z,26.60
2019-01-21T13:05:48.454Z,27.00
2019-01-21T13:09:12.488Z,27.77
2019-01-21T13:12:42.367Z,27.97
2019-01-21T13:15:57.333Z,27.17
2019-01-21T13:19:39.738Z,27.93
2019-01-21T13:22:51.785Z,27.17
2019-01-21T13:26:35.645Z,25.63
2019-01-21T13:29:45.144Z,27.33
2019-01-21T13:32:59.772Z,26.77
2019-01-21T13:36:23.962Z,25.93
2019-01-21T13:40:01.824Z,26.43
2019-01-21T13:43:40.477Z,25.70
2019-01-21T13:47:02.261Z,26.83
2019-01-21T13:50:37.199Z,25.37
2019-01-21T13:54:13.848Z,25.97
2019-01-21T13:57:42.458Z,25.23
2019-01-21T14:01:09.818Z,24.87
2019-01-21T14:04:36.373Z,26.00
2019-01-21T14:08:00.786Z,26.10
2019-01-21T14:11:29.521Z,26.77
2019-01-21T14:14:48.002Z,26.47
2019-01-21T14:18:24.004Z,26.73
2019-01-21T14:21:33.429Z,26.97
2019-01-21T14:25:11.174Z,25.67
2019-01-21T14:28:42.053Z,27.20
2019-01-21T14:32:15.760Z,25.37
2019-01-21T14:35:41.900Z,26.37
2019-01-21T14:38:51.440Z,27.13
2019-01-21T14:42:12.573Z,25.77
2019-01-21T14:45:36.229Z,26.13
2019-01-21T14:49:17.133Z,28.40
2019-01-21T14:52:38.441Z,25.63
2019-01-21T14:56:12.689Z,26.07
2019-01-21T14:59:39.276Z,25.23
2019-01-21T15:03:07.729Z,27.17
2019-01-21T15:06:19.832Z,25.43
2019-01-21T15:09:57.976Z,26.27
2019-01-21T15:13:18.925Z,27.53
2019-01-21T15:16:33.969Z,27.67
2019-01-21T15:19:40.906Z,26.30
2019-01-21T15:23:04.367Z,25.73
2019-01-21T15:26:24.781Z,24.80
2019-01-21T15:29:51.556Z,24.30
2019-01-21T15:33:09.754Z,24.77
2019-01-21T15:36:24.404Z,23.30
2019-01-21T15:39:46.105Z,24.10
2019-01-21T15:43:11.673Z,25.47
2019-01-21T15:46:40.872Z,22.97
2019-01-21T15:49:56.121Z,24.70
2019-01-21T15:53:29.519Z,22.20
2019-01-21T15:57:28.935Z,24.00
2019-01-21T16:00:55.976Z,24.87
2019-01-21T16:04:08.504Z,23.63
2019-01-21T16:07:32.705Z,24.43
2019-01-21T16:11:11.823Z,26.30
2019-01-21T16:14:17.681Z,26.03
2019-01-21T16:17:42.074Z,25.37
2019-01-21T16:21:39.736Z,24.57
2019-01-21T16:25:03.133Z,24.70
2019-01-21T16:28:30.121Z,25.30
2019-01-21T16:31:34.632Z,26.60
2019-01-21T16:34:58.684Z,26.50
2019-01-21T16:38:08.077Z,25.53
2019-01-21T16:41:37.973Z,27.23
2019-01-21T16:44:45.171Z,27.50
2019-01-21T16:47:49.863Z,27.53
2019-01-21T16:50:54.309Z,27.57
2019-01-21T16:53:58.770Z,28.30
2019-01-21T16:57:03.540Z,27.37
2019-01-21T17:00:12.811Z,28.63
2019-01-21T17:03:17.248Z,28.47
2019-01-21T17:06:22.135Z,29.97
2019-01-21T17:09:26.589Z,30.60
2019-01-21T17:12:31.032Z,29.13
2019-01-21T17:15:35.811Z,28.30
2019-01-21T17:18:40.328Z,27.27
2019-01-21T17:21:45.087Z,30.77
2019-01-21T17:24:49.799Z,30.63
2019-01-21T17:27:54.242Z,29.67
2019-01-21T17:30:58.962Z,29.87
2019-01-21T17:34:03.690Z,27.53
2019-01-21T17:37:08.526Z,30.03
2019-01-21T17:40:17.884Z,28.40
2019-01-21T17:43:22.329Z,28.60
2019-01-21T17:46:27.114Z,31.27
2019-01-21T17:49:31.848Z,31.23
2019-01-21T17:52:36.575Z,30.40
2019-01-21T17:55:41.030Z,29.37
2019-01-21T17:58:45.733Z,29.47
2019-01-21T18:01:50.182Z,30.73
2019-01-21T18:04:54.637Z,29.00
2019-01-21T18:07:59.087Z,28.80
2019-01-21T18:11:04.519Z,29.67
2019-01-21T18:14:09.477Z,28.93
2019-01-21T18:17:13.947Z,29.47
2019-01-21T18:20:21.814Z,31.33
2019-01-21T18:23:26.547Z,29.17
2019-01-21T18:26:30.996Z,29.03
2019-01-21T18:29:35.434Z,28.67
2019-01-21T18:32:40.222Z,29.70
2019-01-21T18:35:44.674Z,29.03
2019-01-21T18:38:49.122Z,31.03
2019-01-21T18:41:53.773Z,29.10
2019-01-21T18:44:58.528Z,30.83
2019-01-21T18:48:03.365Z,32.33
2019-01-21T18:51:07.838Z,32.50
2019-01-21T18:54:12.524Z,33.53
2019-01-21T18:57:17.163Z,32.07
2019-01-21T19:00:24.208Z,30.40
2019-01-21T19:03:28.646Z,33.17
2019-01-21T19:06:33.386Z,32.37
2019-01-21T19:09:38.124Z,31.73
2019-01-21T19:12:42.589Z,31.40
2019-01-21T19:15:47.036Z,33.10
2019-01-21T19:18:51.480Z,31.93
2019-01-21T19:21:55.928Z,32.23
2019-01-21T19:25:00.370Z,33.57
2019-01-21T19:28:04.825Z,33.53
2019-01-21T19:31:09.278Z,34.77
2019-01-21T19:34:13.714Z,32.70
2019-01-21T19:37:18.451Z,33.03
2019-01-21T19:40:23.999Z,35.87
2019-01-21T19:43:28.440Z,35.30
2019-01-21T19:46:32.893Z,36.47
2019-01-21T19:49:37.331Z,35.77
2019-01-21T19:52:41.855Z,33.87
2019-01-21T19:55:46.305Z,36.13
2019-01-21T19:58:50.844Z,36.53
2019-01-21T20:01:55.314Z,36.37
2019-01-21T20:04:59.995Z,34.80
2019-01-21T20:08:04.446Z,33.83
2019-01-21T20:11:09.252Z,37.47
2019-01-21T20:14:13.693Z,35.00
2019-01-21T20:17:18.150Z,34.83
2019-01-21T20:20:35.994Z,34.63
2019-01-21T20:23:40.770Z,33.23
2019-01-21T20:26:45.218Z,34.50
2019-01-21T20:29:49.660Z,32.87
2019-01-21T20:32:54.507Z,33.73
2019-01-21T20:35:58.907Z,34.40
2019-01-21T20:39:05.010Z,33.03
2019-01-21T20:42:09.454Z,34.77
2019-01-21T20:45:14.710Z,34.43
2019-01-21T20:48:19.441Z,35.23
2019-01-21T20:51:23.888Z,33.77
2019-01-21T20:54:28.340Z,34.37
2019-01-21T20:57:32.788Z,31.80
2019-01-21T21:00:37.540Z,34.30
2019-01-21T21:03:42.274Z,35.30
2019-01-21T21:06:46.998Z,33.63
2019-01-21T21:09:51.456Z,34.33
2019-01-21T21:12:55.911Z,36.60
2019-01-21T21:16:00.685Z,33.70
2019-01-21T21:19:05.422Z,35.03
2019-01-21T21:22:10.140Z,34.83
2019-01-21T21:25:18.394Z,33.97
2019-01-21T21:28:22.850Z,33.83
2019-01-21T21:31:27.571Z,33.57
2019-01-21T21:34:32.343Z,33.40
2019-01-21T21:37:37.183Z,33.63
2019-01-21T21:40:41.912Z,34.17
2019-01-21T21:43:46.356Z,33.00
2019-01-21T21:46:51.063Z,34.83
2019-01-21T21:49:55.510Z,34.63
2019-01-21T21:53:00.238Z,35.50
2019-01-21T21:56:04.953Z,35.93
2019-01-21T21:59:09.398Z,35.17
2019-01-21T22:02:13.845Z,35.77
2019-01-21T22:05:19.435Z,34.90
2019-01-21T22:08:23.888Z,35.33
2019-01-21T22:11:28.332Z,33.37
2019-01-21T22:14:33.432Z,36.93
2019-01-21T22:17:38.162Z,33.50
2019-01-21T22:20:42.611Z,32.40
2019-01-21T22:23:47.080Z,32.80
2019-01-21T22:26:51.529Z,34.00
2019-01-21T22:29:55.974Z,30.50
2019-01-21T22:33:00.692Z,31.87
2019-01-21T22:36:05.940Z,31.70
2019-01-21T22:39:10.392Z,31.57
2019-01-21T22:42:15.093Z,34.27
2019-01-21T22:45:20.890Z,33.27
2019-01-21T22:48:25.346Z,31.93
2019-01-21T22:51:29.792Z,33.27
2019-01-21T22:54:34.242Z,33.90
2019-01-21T22:57:39.254Z,34.30
2019-01-21T23:00:50.144Z,32.60
2019-01-21T23:03:54.862Z,34.83
2019-01-21T23:06:59.620Z,31.83
2019-01-21T23:10:07.664Z,34.47
2019-01-21T23:13:12.114Z,31.93
2019-01-21T23:16:17.063Z,33.17
2019-01-21T23:19:21.515Z,32.97
2019-01-21T23:22:25.972Z,33.33
2019-01-21T23:25:30.430Z,31.73
2019-01-21T23:28:34.878Z,31.90
2019-01-21T23:31:39.621Z,33.27
2019-01-21T23:34:44.382Z,33.17
2019-01-21T23:37:49.260Z,34.83
2019-01-21T23:40:53.715Z,33.83
2019-01-21T23:43:58.172Z,32.50
2019-01-21T23:47:02.635Z,33.27
2019-01-21T23:50:16.323Z,34.27
2019-01-21T23:53:20.776Z,32.77
2019-01-21T23:56:25.534Z,32.13
2019-01-21T23:59:30.256Z,34.33
